KPMD/PMD METAR and TAF weather

Enter ICAO airport designator
Station Type Date Time Source
KPMD METAR 2021/09/28 16:53 UTC NOAA

KPMD 281653Z 20/08 A2994 RMK AO2 PK WND 29029/1607 SLP118 T02000083 $


Station Type Date Time Source
KPMD Decoded METAR 2021/09/28 16:53 UTC NOAA

PALMDALE PROD FLIGHT PLANT, CA, United States (KPMD) 34-38N 118-05W 780M
Sep 28, 2021 - 12:53 PM EDT / 2021.09.28 1653 UTC
Temperature: 68.0 F (20.0 C)
Dew Point: 46.9 F (8.3 C)
Relative Humidity: 46%
Pressure (altimeter): 29.94 in. Hg (1013 hPa)
ob: KPMD 281653Z 20/08 A2994 RMK AO2 PK WND 29029/1607 SLP118 T02000083
cycle: 17

Station Type Date Time Source
KPMD TAF 2021/09/28 12:48 UTC NOAA

TAF KPMD 281145Z 2812/2912 26020G30KT P6SM SKC
FM290300 26015KT P6SM SKC
FM290900 24008KT P6SM SKC

Example: see airport list